CheckWX is a tool to help pilots better visualize weather data.  It is not intended as a substitute for an official pre-flight weather briefing.

04:05:00 UTC

VGHS METAR
Dhaka
Dhaka, Bangladesh
Current

35 mins ago

VGHS 020330Z 21018KT 4000 HZ FEW015 SCT100 30/24 Q1008 NOSIG
Observed
Jun-2 @ 03:30 UTC
Wind
  • 210° at 18 KTS
Visibility
4007 meters
Flight Rules
IFR
Conditions
Haze
Cloud Levels
  • Few at 1,500' AGL
  • Scattered at 10,000' AGL
Temperature
30°C / 86°F
Dewpoint
24°C / 75°F
Humidity
70%
Altimeter
29.76" Hg
Pressure
1007.92 hPa
Previous

1 hour ago

VGHS 020300Z 20016KT 4000 HZ FEW015 SCT100 29/23 Q1008 NOSIG
Observed
Jun-2 @ 03:00 UTC
Wind
  • 200° at 16 KTS
Visibility
4007 meters
Flight Rules
IFR
Conditions
Haze
Cloud Levels
  • Few at 1,500' AGL
  • Scattered at 10,000' AGL
Temperature
29°C / 84°F
Dewpoint
23°C / 73°F
Humidity
70%
Altimeter
29.76" Hg
Pressure
1007.92 hPa
Previous

2 hours ago

VGHS 020230Z 23010KT 4000 HZ SCT012 BKN100 28/23 Q1008 NOSIG
Observed
Jun-2 @ 02:30 UTC
Wind
  • 230° at 10 KTS
Visibility
4007 meters
Flight Rules
IFR
Conditions
Haze
Cloud Levels
  • Scattered at 1,200' AGL
  • Broken at 10,000' AGL
Temperature
28°C / 82°F
Dewpoint
23°C / 73°F
Humidity
74%
Altimeter
29.76" Hg
Pressure
1007.92 hPa